Aérodrome :
LOGIN :

S'inscrire | Disclaimer

   EN    FR    IT 

 










Légende :    VFR   VFR Marginal   IFR   IFR Intensif   IFR Très Intensif
Visi : 
Plafond : 
>= 8 km
>= 3000ft
5 à 8 km
1000 à 3000 ft
1500m à 5 km
500 à 1000 ft
800 à 1500m
200 à 500 ft
< 800m
< 200 ft
Symboles :   Orages  Brouillard  Fortes neiges  Fortes précipitations  Vent > 20 kt
SIGMETs :   Divers  Orages  Givrage  Turbulence  Onde Orograph.  Cendres Volcan.







- Altitude de l'aérodrome : 1197 ft
- Code IATA : SPM


ETAD - Spangdahlem Ab

DERNIER METAR :
  • 212223Z AUTO 22006KT 9999 -RA BKN021 BKN060 18/16 A2989 RMK AO2 RAB10 CIG 021V060 SLP100 TSNO $

METARs EXPIRÉS :
  • 212212Z AUTO 25007KT 9999 -RA FEW007 19/14 A2988 RMK AO2 RAB10 SLP097 TSNO $
  • 212210Z AUTO 23006KT 9999 -RA FEW060 20/14 A2988 RMK AO2 RAB10 SLP095
  • 212158Z AUTO 00000KT 9999 CLR 20/12 A2987 RMK AO2 SLP093 T02000124 TSNO $
  • 212058Z AUTO 04003KT 9999 CLR 20/13 A2987 RMK AO2 SLP093 T01960125 55004 TSNO $
  • 211958Z AUTO 00000KT 9999 CLR 21/12 A2987 RMK AO2 SLP093 T02120120 TSNO $

TAF TAF ETAD
Valide du 21 à 19h jusqu'au 23 à 01h UTC


211955Z 2119/2301 20009KT 9999 FEW070 QNH2983INS
BECMG 2200/2201 23009KT 9999 SCT050 BKN070 QNH2984INS
TEMPO 2204/2207 20012KT 8000 -TSRA BKN030CB
BECMG 2211/2212 22009KT 9999 FEW100 QNH2986INS
BECMG 2223/2224 25012G18KT 9000 -SHRA BKN030 QNH2987INS TX27/2214Z TN15/2203Z LAST NO AMDS AFT 2119 NEXT 2206
Pas de NOTAMs connus pour ce terrain.
1 SIGMET publié pour la FIR Langen (EDGG) :
 
Orages fréquents
EDGG SIGMET 3 VALID 212100/212300 EDZF
EDGG LANGEN FIR FRQ TS FCST WI N4953 E00933 - N4847 E00946 - N4743 E00930 - N4841 E00802 - N4903 E00645 - N4952 E00658 - N4953 E00933 TOP FL400 MOV NE NC=



MET'MAP, la Météo Aéronautique d'un coup d'oeil ! - Copyright ORBIFLY Décembre 2007 - Disclaimer

ORBIFLY MET'MAP TEAM :

Programmation & Développement : Alexandra Zaïnal
Conception & Développement : Baudouin d'Aumeries
Co-Programmation & Développement : Marc-Olivier Méhu
Soutien technique & logistique : Manuel Goepfert

Contact : metmap@orbifly.com




SOURCES & CREDITS :

   NOAA